sensor_id;sensor_type;location;lat;lon;timestamp;pressure;altitude;pressure_sealevel;temperature;humidity
52855;BME280;38719;51.418;7.286;2023-02-23T00:01:25;99439.00;;;11.15;75.25
52855;BME280;38719;51.418;7.286;2023-02-23T00:03:54;99442.28;;;11.36;74.04
52855;BME280;38719;51.418;7.286;2023-02-23T00:06:23;99445.63;;;11.40;73.84
52855;BME280;38719;51.418;7.286;2023-02-23T00:08:52;99437.53;;;11.41;73.77
52855;BME280;38719;51.418;7.286;2023-02-23T00:11:20;99446.38;;;11.42;73.92
52855;BME280;38719;51.418;7.286;2023-02-23T00:13:48;99434.53;;;11.48;73.54
52855;BME280;38719;51.418;7.286;2023-02-23T00:16:18;99445.09;;;11.49;73.89
52855;BME280;38719;51.418;7.286;2023-02-23T00:18:49;99446.97;;;11.47;73.26
52855;BME280;38719;51.418;7.286;2023-02-23T00:21:18;99436.31;;;11.47;73.62
52855;BME280;38719;51.418;7.286;2023-02-23T00:23:48;99438.22;;;11.45;73.40
52855;BME280;38719;51.418;7.286;2023-02-23T00:26:16;99441.00;;;11.43;73.81
52855;BME280;38719;51.418;7.286;2023-02-23T00:28:47;99442.63;;;11.46;74.37
52855;BME280;38719;51.418;7.286;2023-02-23T00:31:16;99431.19;;;11.44;74.41
52855;BME280;38719;51.418;7.286;2023-02-23T00:33:44;99437.28;;;11.46;73.37
52855;BME280;38719;51.418;7.286;2023-02-23T00:36:13;99431.34;;;11.41;74.07
52855;BME280;38719;51.418;7.286;2023-02-23T00:38:41;99439.16;;;11.44;74.54
52855;BME280;38719;51.418;7.286;2023-02-23T00:41:13;99434.00;;;11.41;74.31
52855;BME280;38719;51.418;7.286;2023-02-23T00:43:45;99430.38;;;11.42;74.18
52855;BME280;38719;51.418;7.286;2023-02-23T00:46:14;99436.66;;;11.41;74.46
52855;BME280;38719;51.418;7.286;2023-02-23T00:48:43;99429.34;;;11.28;74.98
52855;BME280;38719;51.418;7.286;2023-02-23T00:51:13;99437.78;;;11.37;74.57
52855;BME280;38719;51.418;7.286;2023-02-23T00:53:41;99432.66;;;11.34;73.99
52855;BME280;38719;51.418;7.286;2023-02-23T00:56:10;99434.34;;;11.35;75.01
52855;BME280;38719;51.418;7.286;2023-02-23T00:58:39;99436.84;;;11.38;75.24
52855;BME280;38719;51.418;7.286;2023-02-23T01:01:08;99439.69;;;11.35;73.97
52855;BME280;38719;51.418;7.286;2023-02-23T01:03:38;99433.34;;;11.37;74.78
52855;BME280;38719;51.418;7.286;2023-02-23T01:06:08;99437.00;;;11.35;74.45
52855;BME280;38719;51.418;7.286;2023-02-23T01:08:39;99430.59;;;11.39;74.84
52855;BME280;38719;51.418;7.286;2023-02-23T01:11:11;99436.00;;;11.37;75.18
52855;BME280;38719;51.418;7.286;2023-02-23T01:13:40;99433.16;;;11.40;74.95
52855;BME280;38719;51.418;7.286;2023-02-23T01:16:12;99426.28;;;11.36;75.28
52855;BME280;38719;51.418;7.286;2023-02-23T01:18:40;99430.59;;;11.39;74.90
52855;BME280;38719;51.418;7.286;2023-02-23T01:21:14;99432.31;;;11.40;75.35
52855;BME280;38719;51.418;7.286;2023-02-23T01:23:44;99431.63;;;11.36;74.69
52855;BME280;38719;51.418;7.286;2023-02-23T01:26:15;99433.34;;;11.37;74.92
52855;BME280;38719;51.418;7.286;2023-02-23T01:28:47;99430.06;;;11.32;74.44
52855;BME280;38719;51.418;7.286;2023-02-23T01:31:15;99429.09;;;11.33;75.16
52855;BME280;38719;51.418;7.286;2023-02-23T01:33:44;99429.19;;;11.32;75.12
52855;BME280;38719;51.418;7.286;2023-02-23T01:36:12;99426.53;;;11.32;74.51
52855;BME280;38719;51.418;7.286;2023-02-23T01:38:40;99429.00;;;11.35;75.47
52855;BME280;38719;51.418;7.286;2023-02-23T01:41:09;99430.16;;;11.31;75.03
52855;BME280;38719;51.418;7.286;2023-02-23T01:43:55;99422.16;;;11.31;75.25
52855;BME280;38719;51.418;7.286;2023-02-23T01:46:23;99422.25;;;11.29;75.37
52855;BME280;38719;51.418;7.286;2023-02-23T01:48:50;99425.00;;;11.27;75.53
52855;BME280;38719;51.418;7.286;2023-02-23T01:51:24;99424.13;;;11.27;74.87
52855;BME280;38719;51.418;7.286;2023-02-23T01:53:57;99422.50;;;11.24;75.10
52855;BME280;38719;51.418;7.286;2023-02-23T01:56:31;99425.94;;;11.26;75.18
52855;BME280;38719;51.418;7.286;2023-02-23T01:59:04;99425.00;;;11.27;75.18
52855;BME280;38719;51.418;7.286;2023-02-23T02:01:32;99429.09;;;11.33;75.70
52855;BME280;38719;51.418;7.286;2023-02-23T02:04:01;99422.34;;;11.27;74.99
52855;BME280;38719;51.418;7.286;2023-02-23T02:06:32;99422.16;;;11.31;75.37
52855;BME280;38719;51.418;7.286;2023-02-23T02:09:02;99426.34;;;11.35;74.93
52855;BME280;38719;51.418;7.286;2023-02-23T02:11:33;99421.22;;;11.32;75.27
52855;BME280;38719;51.418;7.286;2023-02-23T02:14:05;99415.88;;;11.32;75.08
52855;BME280;38719;51.418;7.286;2023-02-23T02:16:54;99416.38;;;11.22;75.14
52855;BME280;38719;51.418;7.286;2023-02-23T02:19:52;99416.13;;;11.27;76.17
52855;BME280;38719;51.418;7.286;2023-02-23T02:22:45;99412.03;;;11.21;76.04
52855;BME280;38719;51.418;7.286;2023-02-23T02:25:32;99412.03;;;11.21;76.20
52855;BME280;38719;51.418;7.286;2023-02-23T02:28:30;99406.59;;;11.23;76.17
52855;BME280;38719;51.418;7.286;2023-02-23T02:31:25;99411.69;;;11.27;75.12
52855;BME280;38719;51.418;7.286;2023-02-23T02:34:18;99415.28;;;11.26;75.40
52855;BME280;38719;51.418;7.286;2023-02-23T02:37:16;99402.47;;;11.17;75.63
52855;BME280;38719;51.418;7.286;2023-02-23T02:39:49;99405.06;;;11.19;75.83
52855;BME280;38719;51.418;7.286;2023-02-23T02:42:47;99407.03;;;11.15;75.54
52855;BME280;38719;51.418;7.286;2023-02-23T02:45:22;99407.19;;;11.12;75.82
52855;BME280;38719;51.418;7.286;2023-02-23T02:47:56;99411.16;;;11.21;76.29
52855;BME280;38719;51.418;7.286;2023-02-23T02:50:36;99404.19;;;11.18;75.21
52855;BME280;38719;51.418;7.286;2023-02-23T02:53:08;99405.31;;;11.14;75.88
52855;BME280;38719;51.418;7.286;2023-02-23T02:55:38;99403.59;;;11.13;76.82
52855;BME280;38719;51.418;7.286;2023-02-23T02:58:11;99404.97;;;11.20;76.42
52855;BME280;38719;51.418;7.286;2023-02-23T03:00:41;99399.53;;;11.22;75.58
52855;BME280;38719;51.418;7.286;2023-02-23T03:03:29;99401.34;;;11.21;76.13
52855;BME280;38719;51.418;7.286;2023-02-23T03:06:15;99404.78;;;11.23;76.42
52855;BME280;38719;51.418;7.286;2023-02-23T03:09:02;99401.53;;;11.18;75.33
52855;BME280;38719;51.418;7.286;2023-02-23T03:12:02;99406.00;;;11.18;75.80
52855;BME280;38719;51.418;7.286;2023-02-23T03:14:57;99399.03;;;11.15;76.41
52855;BME280;38719;51.418;7.286;2023-02-23T03:17:46;99406.00;;;11.18;76.60
52855;BME280;38719;51.418;7.286;2023-02-23T03:20:40;99407.78;;;11.17;76.52
52855;BME280;38719;51.418;7.286;2023-02-23T03:23:35;99407.09;;;11.13;76.44
52855;BME280;38719;51.418;7.286;2023-02-23T03:26:29;99410.47;;;11.17;76.79
52855;BME280;38719;51.418;7.286;2023-02-23T03:29:24;99403.59;;;11.13;75.90
52855;BME280;38719;51.418;7.286;2023-02-23T03:32:18;99397.56;;;11.09;76.12
52855;BME280;38719;51.418;7.286;2023-02-23T03:35:08;99412.78;;;11.07;76.20
52855;BME280;38719;51.418;7.286;2023-02-23T03:38:04;99404.97;;;11.04;76.52
52855;BME280;38719;51.418;7.286;2023-02-23T03:40:52;99414.34;;;11.11;76.41
52855;BME280;38719;51.418;7.286;2023-02-23T03:43:44;99403.50;;;11.15;76.50
52855;BME280;38719;51.418;7.286;2023-02-23T03:46:30;99417.59;;;11.01;76.56
52855;BME280;38719;51.418;7.286;2023-02-23T03:49:17;99414.94;;;11.01;77.34
52855;BME280;38719;51.418;7.286;2023-02-23T03:52:09;99412.22;;;10.69;78.60
52855;BME280;38719;51.418;7.286;2023-02-23T03:54:57;99413.38;;;10.96;77.37
52855;BME280;38719;51.418;7.286;2023-02-23T03:57:46;99412.34;;;10.99;77.46
52855;BME280;38719;51.418;7.286;2023-02-23T04:00:38;99414.69;;;11.05;76.48
52855;BME280;38719;51.418;7.286;2023-02-23T04:03:25;99407.97;;;11.14;76.38
52855;BME280;38719;51.418;7.286;2023-02-23T04:06:12;99419.56;;;11.13;77.12
52855;BME280;38719;51.418;7.286;2023-02-23T04:09:01;99414.41;;;11.10;76.57
52855;BME280;38719;51.418;7.286;2023-02-23T04:11:50;99414.59;;;11.07;77.35
52855;BME280;38719;51.418;7.286;2023-02-23T04:14:43;99420.75;;;11.07;76.50
52855;BME280;38719;51.418;7.286;2023-02-23T04:17:13;99423.44;;;11.07;76.58
52855;BME280;38719;51.418;7.286;2023-02-23T04:19:49;99418.78;;;11.11;77.22
52855;BME280;38719;51.418;7.286;2023-02-23T04:22:16;99428.69;;;11.09;76.42
52855;BME280;38719;51.418;7.286;2023-02-23T04:24:44;99424.56;;;11.03;77.19
52855;BME280;38719;51.418;7.286;2023-02-23T04:27:12;99428.47;;;10.80;78.37
52855;BME280;38719;51.418;7.286;2023-02-23T04:29:39;99424.06;;;10.96;77.77
52855;BME280;38719;51.418;7.286;2023-02-23T04:32:13;99425.56;;;10.85;77.62
52855;BME280;38719;51.418;7.286;2023-02-23T04:34:41;99425.94;;;10.94;77.17
52855;BME280;38719;51.418;7.286;2023-02-23T04:37:09;99429.09;;;11.01;77.05
52855;BME280;38719;51.418;7.286;2023-02-23T04:39:37;99429.78;;;11.05;76.74
52855;BME280;38719;51.418;7.286;2023-02-23T04:42:05;99429.53;;;10.93;77.55
52855;BME280;38719;51.418;7.286;2023-02-23T04:44:32;99437.16;;;10.84;77.17
52855;BME280;38719;51.418;7.286;2023-02-23T04:47:00;99433.63;;;10.67;78.36
52855;BME280;38719;51.418;7.286;2023-02-23T04:49:29;99429.31;;;10.64;77.96
52855;BME280;38719;51.418;7.286;2023-02-23T04:51:56;99430.25;;;10.63;77.97
52855;BME280;38719;51.418;7.286;2023-02-23T04:54:24;99436.78;;;10.74;77.90
52855;BME280;38719;51.418;7.286;2023-02-23T04:56:52;99430.91;;;10.85;77.24
52855;BME280;38719;51.418;7.286;2023-02-23T04:59:19;99430.66;;;10.89;77.46
52855;BME280;38719;51.418;7.286;2023-02-23T05:01:47;99435.09;;;10.89;77.14
52855;BME280;38719;51.418;7.286;2023-02-23T05:04:15;99431.47;;;10.74;78.33
52855;BME280;38719;51.418;7.286;2023-02-23T05:06:43;99433.66;;;10.83;77.67
52855;BME280;38719;51.418;7.286;2023-02-23T05:09:11;99434.84;;;10.93;77.16
52855;BME280;38719;51.418;7.286;2023-02-23T05:11:38;99431.94;;;10.98;76.61
52855;BME280;38719;51.418;7.286;2023-02-23T05:14:06;99435.38;;;10.84;76.26
52855;BME280;38719;51.418;7.286;2023-02-23T05:16:34;99436.41;;;10.82;77.64
52855;BME280;38719;51.418;7.286;2023-02-23T05:19:02;99447.31;;;10.77;77.45
52855;BME280;38719;51.418;7.286;2023-02-23T05:21:30;99444.13;;;10.86;76.94
52855;BME280;38719;51.418;7.286;2023-02-23T05:23:58;99441.22;;;10.91;77.06
52855;BME280;38719;51.418;7.286;2023-02-23T05:26:27;99443.03;;;10.90;77.02
52855;BME280;38719;51.418;7.286;2023-02-23T05:28:54;99435.56;;;10.97;76.30
52855;BME280;38719;51.418;7.286;2023-02-23T05:31:22;99444.56;;;10.94;76.74
52855;BME280;38719;51.418;7.286;2023-02-23T05:33:51;99442.66;;;10.80;77.36
52855;BME280;38719;51.418;7.286;2023-02-23T05:36:20;99445.69;;;10.90;77.56
52855;BME280;38719;51.418;7.286;2023-02-23T05:38:48;99443.09;;;10.89;76.71
52855;BME280;38719;51.418;7.286;2023-02-23T05:41:18;99451.69;;;10.78;76.62
52855;BME280;38719;51.418;7.286;2023-02-23T05:43:48;99447.22;;;10.78;77.51
52855;BME280;38719;51.418;7.286;2023-02-23T05:46:19;99452.63;;;10.77;77.73
52855;BME280;38719;51.418;7.286;2023-02-23T05:48:47;99445.56;;;10.76;77.87
52855;BME280;38719;51.418;7.286;2023-02-23T05:51:15;99450.06;;;10.75;77.64
52855;BME280;38719;51.418;7.286;2023-02-23T05:53:44;99449.97;;;10.77;77.86
52855;BME280;38719;51.418;7.286;2023-02-23T05:56:14;99452.19;;;10.85;77.33
52855;BME280;38719;51.418;7.286;2023-02-23T05:58:47;99445.69;;;10.90;76.90
52855;BME280;38719;51.418;7.286;2023-02-23T06:01:15;99453.00;;;10.87;76.45
52855;BME280;38719;51.418;7.286;2023-02-23T06:03:44;99451.88;;;10.91;76.78
52855;BME280;38719;51.418;7.286;2023-02-23T06:06:12;99450.00;;;10.93;77.22
52855;BME280;38719;51.418;7.286;2023-02-23T06:08:40;99456.06;;;10.95;76.47
52855;BME280;38719;51.418;7.286;2023-02-23T06:11:08;99458.03;;;10.91;76.47
52855;BME280;38719;51.418;7.286;2023-02-23T06:13:35;99452.44;;;10.80;76.89
52855;BME280;38719;51.418;7.286;2023-02-23T06:16:05;99453.00;;;10.87;76.49
52855;BME280;38719;51.418;7.286;2023-02-23T06:18:33;99467.25;;;10.86;77.06
52855;BME280;38719;51.418;7.286;2023-02-23T06:21:01;99464.59;;;10.86;76.89
52855;BME280;38719;51.418;7.286;2023-02-23T06:23:30;99463.56;;;10.88;76.99
52855;BME280;38719;51.418;7.286;2023-02-23T06:25:58;99466.31;;;10.87;76.88
52855;BME280;38719;51.418;7.286;2023-02-23T06:28:27;99469.91;;;10.86;76.96
52855;BME280;38719;51.418;7.286;2023-02-23T06:30:55;99470.69;;;10.88;77.18
52855;BME280;38719;51.418;7.286;2023-02-23T06:33:25;99469.03;;;10.85;76.37
52855;BME280;38719;51.418;7.286;2023-02-23T06:35:52;99469.38;;;10.79;76.77
52855;BME280;38719;51.418;7.286;2023-02-23T06:38:20;99467.66;;;10.78;76.68
52855;BME280;38719;51.418;7.286;2023-02-23T06:40:49;99478.38;;;10.76;76.90
52855;BME280;38719;51.418;7.286;2023-02-23T06:43:16;99477.22;;;10.82;76.92
52855;BME280;38719;51.418;7.286;2023-02-23T06:45:45;99480.47;;;10.87;76.71
52855;BME280;38719;51.418;7.286;2023-02-23T06:48:13;99490.06;;;10.74;76.86
52855;BME280;38719;51.418;7.286;2023-02-23T06:50:42;99486.97;;;10.48;78.39
52855;BME280;38719;51.418;7.286;2023-02-23T06:53:09;99492.91;;;10.71;77.46
52855;BME280;38719;51.418;7.286;2023-02-23T06:55:37;99498.00;;;10.75;77.33
52855;BME280;38719;51.418;7.286;2023-02-23T06:58:05;99496.41;;;10.71;77.26
52855;BME280;38719;51.418;7.286;2023-02-23T07:00:33;99500.31;;;10.82;76.78
52855;BME280;38719;51.418;7.286;2023-02-23T07:03:00;99502.81;;;10.85;76.79
52855;BME280;38719;51.418;7.286;2023-02-23T07:05:28;99510.81;;;10.85;76.87
52855;BME280;38719;51.418;7.286;2023-02-23T07:07:57;99509.00;;;10.85;76.61
52855;BME280;38719;51.418;7.286;2023-02-23T07:10:24;99513.47;;;10.85;76.62
52855;BME280;38719;51.418;7.286;2023-02-23T07:12:52;99509.31;;;10.79;76.70
52855;BME280;38719;51.418;7.286;2023-02-23T07:15:20;99517.78;;;10.87;77.04
52855;BME280;38719;51.418;7.286;2023-02-23T07:17:47;99516.97;;;10.85;76.91
52855;BME280;38719;51.418;7.286;2023-02-23T07:20:17;99522.47;;;10.82;76.51
52855;BME280;38719;51.418;7.286;2023-02-23T07:22:44;99520.44;;;10.87;77.21
52855;BME280;38719;51.418;7.286;2023-02-23T07:25:13;99522.16;;;10.88;77.07
52855;BME280;38719;51.418;7.286;2023-02-23T07:27:44;99524.91;;;10.87;76.79
52855;BME280;38719;51.418;7.286;2023-02-23T07:30:12;99526.72;;;10.69;77.22
52855;BME280;38719;51.418;7.286;2023-02-23T07:32:40;99530.47;;;10.82;76.90
52855;BME280;38719;51.418;7.286;2023-02-23T07:35:10;99529.34;;;10.86;76.66
52855;BME280;38719;51.418;7.286;2023-02-23T07:37:38;99531.25;;;10.84;76.56
52855;BME280;38719;51.418;7.286;2023-02-23T07:40:06;99535.56;;;10.87;77.09
52855;BME280;38719;51.418;7.286;2023-02-23T07:42:36;99529.31;;;10.53;77.51
52855;BME280;38719;51.418;7.286;2023-02-23T07:45:04;99526.44;;;10.57;77.64
52855;BME280;38719;51.418;7.286;2023-02-23T07:47:32;99530.91;;;10.57;77.32
52855;BME280;38719;51.418;7.286;2023-02-23T07:50:00;99534.72;;;10.69;77.92
52855;BME280;38719;51.418;7.286;2023-02-23T07:52:28;99539.63;;;10.76;77.78
52855;BME280;38719;51.418;7.286;2023-02-23T07:54:56;99540.19;;;10.83;76.48
52855;BME280;38719;51.418;7.286;2023-02-23T07:57:23;99537.34;;;10.86;77.01
52855;BME280;38719;51.418;7.286;2023-02-23T07:59:53;99538.69;;;10.77;76.94
52855;BME280;38719;51.418;7.286;2023-02-23T08:02:20;99537.44;;;10.85;77.42
52855;BME280;38719;51.418;7.286;2023-02-23T08:04:48;99553.28;;;10.88;76.66
52855;BME280;38719;51.418;7.286;2023-02-23T08:07:19;99549.25;;;10.79;76.95
52855;BME280;38719;51.418;7.286;2023-02-23T08:09:47;99552.31;;;10.89;77.19
52855;BME280;38719;51.418;7.286;2023-02-23T08:12:14;99547.78;;;10.91;76.61
52855;BME280;38719;51.418;7.286;2023-02-23T08:14:42;99554.75;;;10.93;76.79
52855;BME280;38719;51.418;7.286;2023-02-23T08:17:11;99559.13;;;10.94;76.90
52855;BME280;38719;51.418;7.286;2023-02-23T08:19:38;99557.25;;;10.96;76.37
52855;BME280;38719;51.418;7.286;2023-02-23T08:22:06;99558.75;;;10.85;76.55
52855;BME280;38719;51.418;7.286;2023-02-23T08:24:37;99560.25;;;10.38;78.47
52855;BME280;38719;51.418;7.286;2023-02-23T08:27:04;99564.94;;;10.68;78.33
52855;BME280;38719;51.418;7.286;2023-02-23T08:29:32;99565.94;;;10.83;77.63
52855;BME280;38719;51.418;7.286;2023-02-23T08:32:01;99565.72;;;10.87;77.23
52855;BME280;38719;51.418;7.286;2023-02-23T08:34:30;99574.59;;;10.88;76.41
52855;BME280;38719;51.418;7.286;2023-02-23T08:36:57;99566.81;;;10.83;76.99
52855;BME280;38719;51.418;7.286;2023-02-23T08:39:25;99572.59;;;10.91;76.75
52855;BME280;38719;51.418;7.286;2023-02-23T08:41:53;99576.69;;;10.81;77.00
52855;BME280;38719;51.418;7.286;2023-02-23T08:44:20;99572.59;;;10.91;76.96
52855;BME280;38719;51.418;7.286;2023-02-23T08:46:48;99570.91;;;10.90;77.21
52855;BME280;38719;51.418;7.286;2023-02-23T08:49:16;99579.50;;;10.95;76.83
52855;BME280;38719;51.418;7.286;2023-02-23T08:51:44;99579.66;;;10.92;76.53
52855;BME280;38719;51.418;7.286;2023-02-23T08:54:12;99587.34;;;10.81;77.79
52855;BME280;38719;51.418;7.286;2023-02-23T08:56:42;99582.50;;;10.89;77.41
52855;BME280;38719;51.418;7.286;2023-02-23T08:59:11;99581.47;;;10.92;77.33
52855;BME280;38719;51.418;7.286;2023-02-23T09:01:38;99586.25;;;10.85;77.53
52855;BME280;38719;51.418;7.286;2023-02-23T09:04:07;99590.47;;;10.89;77.32
52855;BME280;38719;51.418;7.286;2023-02-23T09:06:35;99584.84;;;10.95;76.96
52855;BME280;38719;51.418;7.286;2023-02-23T09:09:04;99590.78;;;11.01;77.25
52855;BME280;38719;51.418;7.286;2023-02-23T09:11:32;99594.84;;;11.08;76.71
52855;BME280;38719;51.418;7.286;2023-02-23T09:13:59;99590.06;;;10.97;77.13
52855;BME280;38719;51.418;7.286;2023-02-23T09:16:27;99597.84;;;10.84;77.27
52855;BME280;38719;51.418;7.286;2023-02-23T09:18:54;99599.56;;;10.85;78.16
52855;BME280;38719;51.418;7.286;2023-02-23T09:21:26;99598.84;;;10.99;76.92
52855;BME280;38719;51.418;7.286;2023-02-23T09:23:55;99604.72;;;11.06;76.75
52855;BME280;38719;51.418;7.286;2023-02-23T09:26:25;99602.28;;;11.01;77.20
52855;BME280;38719;51.418;7.286;2023-02-23T09:28:55;99602.38;;;10.82;77.71
52855;BME280;38719;51.418;7.286;2023-02-23T09:31:24;99605.97;;;10.99;77.19
52855;BME280;38719;51.418;7.286;2023-02-23T09:33:52;99608.31;;;11.05;75.68
52855;BME280;38719;51.418;7.286;2023-02-23T09:36:22;99612.88;;;11.03;76.54
52855;BME280;38719;51.418;7.286;2023-02-23T09:38:51;99615.56;;;11.03;76.36
52855;BME280;38719;51.418;7.286;2023-02-23T09:41:52;99619.06;;;11.03;75.62
52855;BME280;38719;51.418;7.286;2023-02-23T09:44:32;99620.22;;;10.97;75.59
52855;BME280;38719;51.418;7.286;2023-02-23T09:47:13;99616.63;;;10.99;75.48
52855;BME280;38719;51.418;7.286;2023-02-23T09:49:46;99618.44;;;10.98;76.02
52855;BME280;38719;51.418;7.286;2023-02-23T09:52:18;99617.56;;;10.97;75.35
52855;BME280;38719;51.418;7.286;2023-02-23T09:54:47;99619.25;;;11.00;75.45
52855;BME280;38719;51.418;7.286;2023-02-23T09:57:20;99625.13;;;10.89;75.96
52855;BME280;38719;51.418;7.286;2023-02-23T09:59:50;99630.13;;;10.95;75.11
52855;BME280;38719;51.418;7.286;2023-02-23T10:02:22;99621.97;;;10.99;76.15
52855;BME280;38719;51.418;7.286;2023-02-23T10:04:52;99626.81;;;11.08;75.12
52855;BME280;38719;51.418;7.286;2023-02-23T10:07:27;99626.97;;;11.05;75.59
52855;BME280;38719;51.418;7.286;2023-02-23T10:10:10;99634.13;;;11.04;75.82
52855;BME280;38719;51.418;7.286;2023-02-23T10:12:49;99634.13;;;11.04;76.12
52855;BME280;38719;51.418;7.286;2023-02-23T10:15:26;99634.59;;;11.12;75.40
52855;BME280;38719;51.418;7.286;2023-02-23T10:18:06;99634.91;;;11.06;75.42
52855;BME280;38719;51.418;7.286;2023-02-23T10:20:43;99631.28;;;11.07;74.84
52855;BME280;38719;51.418;7.286;2023-02-23T10:23:16;99634.44;;;10.98;75.60
52855;BME280;38719;51.418;7.286;2023-02-23T10:25:48;99650.56;;;10.95;76.11
52855;BME280;38719;51.418;7.286;2023-02-23T10:28:20;99651.75;;;11.07;75.55
52855;BME280;38719;51.418;7.286;2023-02-23T10:30:49;99654.31;;;11.08;75.90
52855;BME280;38719;51.418;7.286;2023-02-23T10:33:20;99648.28;;;11.05;75.30
52855;BME280;38719;51.418;7.286;2023-02-23T10:35:54;99647.91;;;10.95;75.30
52855;BME280;38719;51.418;7.286;2023-02-23T10:38:38;99648.59;;;10.99;75.27
52855;BME280;38719;51.418;7.286;2023-02-23T10:41:08;99649.53;;;10.97;75.43
52855;BME280;38719;51.418;7.286;2023-02-23T10:43:41;99655.75;;;10.80;75.93
52855;BME280;38719;51.418;7.286;2023-02-23T10:46:13;99647.75;;;10.98;74.87
52855;BME280;38719;51.418;7.286;2023-02-23T10:48:44;99645.94;;;10.99;74.98
52855;BME280;38719;51.418;7.286;2023-02-23T10:51:17;99660.69;;;10.88;75.49
52855;BME280;38719;51.418;7.286;2023-02-23T10:53:46;99649.72;;;10.94;75.10
52855;BME280;38719;51.418;7.286;2023-02-23T10:56:16;99656.28;;;11.05;75.19
52855;BME280;38719;51.418;7.286;2023-02-23T10:58:48;99654.53;;;11.04;74.48
52855;BME280;38719;51.418;7.286;2023-02-23T11:01:31;99651.22;;;11.00;75.26
52855;BME280;38719;51.418;7.286;2023-02-23T11:04:12;99653.47;;;11.08;76.27
52855;BME280;38719;51.418;7.286;2023-02-23T11:06:42;99641.22;;;11.21;75.41
52855;BME280;38719;51.418;7.286;2023-02-23T11:09:20;99655.97;;;10.93;75.39
52855;BME280;38719;51.418;7.286;2023-02-23T11:12:15;99649.09;;;10.89;75.86
52855;BME280;38719;51.418;7.286;2023-02-23T11:14:48;99648.84;;;11.11;74.70
52855;BME280;38719;51.418;7.286;2023-02-23T11:17:26;99652.28;;;11.13;74.41
52855;BME280;38719;51.418;7.286;2023-02-23T11:19:59;99656.84;;;11.11;74.86
52855;BME280;38719;51.418;7.286;2023-02-23T11:22:31;99657.69;;;11.12;74.85
52855;BME280;38719;51.418;7.286;2023-02-23T11:25:00;99656.97;;;11.08;74.36
52855;BME280;38719;51.418;7.286;2023-02-23T11:27:29;99668.97;;;11.17;74.16
52855;BME280;38719;51.418;7.286;2023-02-23T11:30:02;99652.97;;;11.17;73.96
52855;BME280;38719;51.418;7.286;2023-02-23T11:32:33;99659.56;;;11.10;74.39
52855;BME280;38719;51.418;7.286;2023-02-23T11:35:16;99657.88;;;11.09;74.27
52855;BME280;38719;51.418;7.286;2023-02-23T11:37:54;99657.69;;;10.94;75.61
52855;BME280;38719;51.418;7.286;2023-02-23T11:40:23;99656.69;;;10.62;75.73
52855;BME280;38719;51.418;7.286;2023-02-23T11:42:54;99653.13;;;10.79;75.10
52855;BME280;38719;51.418;7.286;2023-02-23T11:45:25;99651.66;;;10.91;74.97
52855;BME280;38719;51.418;7.286;2023-02-23T11:47:55;99654.00;;;10.97;74.96
52855;BME280;38719;51.418;7.286;2023-02-23T11:50:27;99665.59;;;10.96;73.90
52855;BME280;38719;51.418;7.286;2023-02-23T11:53:00;99658.50;;;10.96;74.47
52855;BME280;38719;51.418;7.286;2023-02-23T11:55:31;99655.75;;;10.98;73.58
52855;BME280;38719;51.418;7.286;2023-02-23T11:58:09;99658.50;;;10.96;74.48
52855;BME280;38719;51.418;7.286;2023-02-23T12:00:40;99660.69;;;10.71;73.92
52855;BME280;38719;51.418;7.286;2023-02-23T12:03:20;99658.75;;;10.55;74.86
52855;BME280;38719;51.418;7.286;2023-02-23T12:05:50;99663.66;;;10.64;74.70
52855;BME280;38719;51.418;7.286;2023-02-23T12:08:33;99659.66;;;10.73;75.10
52855;BME280;38719;51.418;7.286;2023-02-23T12:11:08;99661.31;;;10.76;74.33
52855;BME280;38719;51.418;7.286;2023-02-23T12:13:41;99664.09;;;10.73;74.56
52855;BME280;38719;51.418;7.286;2023-02-23T12:16:17;99662.41;;;10.72;74.21
52855;BME280;38719;51.418;7.286;2023-02-23T12:18:51;99654.75;;;10.46;74.07
52855;BME280;38719;51.418;7.286;2023-02-23T12:21:36;99653.06;;;10.26;75.94
52855;BME280;38719;51.418;7.286;2023-02-23T12:24:18;99649.66;;;10.42;75.00
52855;BME280;38719;51.418;7.286;2023-02-23T12:26:53;99644.06;;;10.66;74.56
52855;BME280;38719;51.418;7.286;2023-02-23T12:29:28;99636.94;;;10.84;74.99
52855;BME280;38719;51.418;7.286;2023-02-23T12:32:01;99645.84;;;10.83;74.27
52855;BME280;38719;51.418;7.286;2023-02-23T12:34:35;99644.53;;;10.91;73.63
52855;BME280;38719;51.418;7.286;2023-02-23T12:37:10;99645.50;;;10.90;73.58
52855;BME280;38719;51.418;7.286;2023-02-23T12:39:43;99659.09;;;10.67;74.12
52855;BME280;38719;51.418;7.286;2023-02-23T12:42:16;99656.81;;;10.76;74.29
52855;BME280;38719;51.418;7.286;2023-02-23T12:44:48;99653.38;;;10.57;74.60
52855;BME280;38719;51.418;7.286;2023-02-23T12:47:23;99652.91;;;10.66;74.07
52855;BME280;38719;51.418;7.286;2023-02-23T12:49:58;99656.38;;;10.68;73.58
52855;BME280;38719;51.418;7.286;2023-02-23T12:52:35;99655.44;;;10.69;74.10
52855;BME280;38719;51.418;7.286;2023-02-23T12:55:08;99659.75;;;10.72;72.64
52855;BME280;38719;51.418;7.286;2023-02-23T12:57:41;99662.41;;;10.72;73.41
52855;BME280;38719;51.418;7.286;2023-02-23T13:00:25;99662.31;;;10.73;72.46
52855;BME280;38719;51.418;7.286;2023-02-23T13:03:14;99659.56;;;10.75;72.33
52855;BME280;38719;51.418;7.286;2023-02-23T13:05:49;99660.50;;;10.56;72.23
52855;BME280;38719;51.418;7.286;2023-02-23T13:08:27;99664.47;;;10.47;72.55
52855;BME280;38719;51.418;7.286;2023-02-23T13:11:02;99656.72;;;10.60;72.43
52855;BME280;38719;51.418;7.286;2023-02-23T13:13:36;99662.34;;;10.54;73.11
52855;BME280;38719;51.418;7.286;2023-02-23T13:16:12;99666.13;;;10.68;72.29
52855;BME280;38719;51.418;7.286;2023-02-23T13:18:45;99666.22;;;10.66;72.12
52855;BME280;38719;51.418;7.286;2023-02-23T13:21:20;99663.47;;;10.68;72.60
52855;BME280;38719;51.418;7.286;2023-02-23T13:23:55;99659.41;;;10.60;72.54
52855;BME280;38719;51.418;7.286;2023-02-23T13:26:30;99664.28;;;10.70;72.67
52855;BME280;38719;51.418;7.286;2023-02-23T13:29:02;99663.06;;;10.40;73.07
52855;BME280;38719;51.418;7.286;2023-02-23T13:31:34;99661.81;;;10.47;73.26